Time;durP1;ratioP1;P1;durP2;ratioP2;P2;SDS_P1;SDS_P2;PMS_P1;PMS_P2;Temp;Humidity;BMP_temperature;BMP_pressure;BME280_temperature;BME280_humidity;BME280_pressure;Samples;Min_cycle;Max_cycle;Signal;HPM_P1;HPM_P2
2022/09/11 00:01:50;;;;;;;10.40;5.65;;;15.20;99.90;;;;;;6207295;23;20021;-85
2022/09/11 00:04:17;;;;;;;11.80;6.25;;;15.20;99.90;;;;;;6207896;23;20063;-86
2022/09/11 00:06:42;;;;;;;9.90;5.75;;;15.10;99.90;;;;;;6208378;23;20446;-86
2022/09/11 00:09:08;;;;;;;11.27;6.35;;;15.10;99.90;;;;;;6209561;23;20091;-87
2022/09/11 00:11:39;;;;;;;12.45;6.40;;;15.10;99.90;;;;;;6210261;23;20032;-86
2022/09/11 00:14:05;;;;;;;12.02;6.57;;;15.10;99.90;;;;;;6209984;23;20016;-86
2022/09/11 00:16:35;;;;;;;11.25;6.28;;;15.10;99.90;;;;;;6185105;23;20017;-86
2022/09/11 00:19:05;;;;;;;10.48;5.63;;;15.10;99.90;;;;;;6210011;23;20021;-86
2022/09/11 00:21:31;;;;;;;11.75;6.65;;;15.10;99.90;;;;;;6210149;23;20021;-86
2022/09/11 00:23:57;;;;;;;11.70;6.35;;;15.10;99.90;;;;;;6210024;23;20005;-86
2022/09/11 00:26:23;;;;;;;11.23;6.57;;;15.10;99.90;;;;;;6185031;23;20023;-86
2022/09/11 00:28:51;;;;;;;12.25;6.25;;;15.10;99.90;;;;;;6210101;23;20021;-86
2022/09/11 00:31:25;;;;;;;11.40;5.95;;;15.10;99.90;;;;;;6210288;23;20021;-86
2022/09/11 00:33:51;;;;;;;10.80;6.53;;;15.00;99.90;;;;;;6210386;23;20342;-86
2022/09/11 00:36:30;;;;;;;12.60;6.78;;;15.00;99.90;;;;;;6188584;23;20095;-85
2022/09/11 00:38:56;;;;;;;11.90;7.20;;;15.00;99.90;;;;;;6212863;23;20080;-86
2022/09/11 00:41:28;;;;;;;11.50;6.68;;;15.00;99.90;;;;;;6211628;23;20021;-86
2022/09/11 00:43:54;;;;;;;11.80;6.57;;;15.00;99.90;;;;;;6210009;23;20024;-87
2022/09/11 00:46:22;;;;;;;11.98;6.30;;;15.00;99.90;;;;;;6209145;23;20100;-89
2022/09/11 00:48:48;;;;;;;11.20;6.43;;;15.00;99.90;;;;;;6211402;23;20013;-90
2022/09/11 00:51:17;;;;;;;;;;;15.10;99.90;;;;;;6161624;23;20099;-90
2022/09/11 00:53:43;;;;;;;11.52;6.78;;;15.00;99.90;;;;;;6210910;22;19991;-92
2022/09/11 00:56:10;;;;;;;10.38;6.05;;;15.00;99.90;;;;;;6210298;23;20077;-88
2022/09/11 00:58:41;;;;;;;10.75;5.88;;;15.00;99.90;;;;;;6211925;23;20075;-90
2022/09/11 01:01:07;;;;;;;12.02;6.10;;;15.00;99.90;;;;;;6210652;23;20009;-92
2022/09/11 01:03:35;;;;;;;12.05;6.40;;;15.00;99.90;;;;;;6160779;23;20445;-91
2022/09/11 01:06:02;;;;;;;10.93;6.22;;;15.00;99.90;;;;;;6210220;23;20348;-90
2022/09/11 01:08:28;;;;;;;11.10;6.68;;;15.00;99.90;;;;;;6210193;23;20499;-92
2022/09/11 01:11:12;;;;;;;10.48;6.47;;;15.00;99.90;;;;;;6186810;23;20020;-89
2022/09/11 01:14:12;;;;;;;10.05;5.72;;;15.00;99.90;;;;;;6198737;23;20021;-91
2022/09/11 01:17:07;;;;;;;9.98;6.07;;;15.00;99.90;;;;;;6189676;23;20016;-92
2022/09/11 01:20:00;;;;;;;12.43;6.18;;;15.00;99.90;;;;;;6185701;23;20019;-90
2022/09/11 01:22:50;;;;;;;10.35;5.85;;;15.00;99.90;;;;;;6185401;23;20021;-91
2022/09/11 01:25:53;;;;;;;11.25;6.78;;;14.90;99.90;;;;;;6184165;23;20035;-90
2022/09/11 01:28:45;;;;;;;10.75;5.95;;;14.90;99.90;;;;;;6210992;23;20020;-90
2022/09/11 01:31:15;;;;;;;9.38;5.63;;;14.90;99.90;;;;;;6186044;22;20048;-89
2022/09/11 01:33:43;;;;;;;10.10;5.72;;;14.90;99.90;;;;;;6212028;23;20024;-91
2022/09/11 01:36:18;;;;;;;11.27;5.68;;;15.00;99.90;;;;;;6210437;23;20024;-90
2022/09/11 01:38:52;;;;;;;9.68;5.38;;;14.90;99.90;;;;;;6210637;23;20091;-89
2022/09/11 01:41:22;;;;;;;9.00;5.35;;;14.90;99.90;;;;;;6185710;23;20017;-92
2022/09/11 01:44:05;;;;;;;9.57;5.82;;;14.90;99.90;;;;;;6185663;23;20091;-91
2022/09/11 01:46:37;;;;;;;10.52;5.95;;;14.80;99.90;;;;;;6212113;23;20073;-93
2022/09/11 01:49:11;;;;;;;11.32;5.90;;;14.80;99.90;;;;;;6210534;23;20016;-91
2022/09/11 01:51:39;;;;;;;10.10;5.50;;;14.80;99.90;;;;;;6210205;23;20021;-91
2022/09/11 01:54:11;;;;;;;9.55;5.15;;;14.80;99.90;;;;;;6210485;23;20093;-91
2022/09/11 01:56:45;;;;;;;9.18;5.40;;;14.80;99.90;;;;;;6185514;23;20020;-91
2022/09/11 01:59:15;;;;;;;9.75;5.82;;;14.90;99.90;;;;;;6185397;23;20051;-92
2022/09/11 02:01:46;;;;;;;9.18;5.10;;;14.80;99.90;;;;;;6185182;23;20035;-89
2022/09/11 02:04:21;;;;;;;11.27;5.90;;;14.80;99.90;;;;;;6211719;23;20028;-89
2022/09/11 02:06:53;;;;;;;8.35;4.97;;;14.80;99.90;;;;;;6185217;23;20042;-86
2022/09/11 02:09:22;;;;;;;9.43;5.28;;;14.80;99.90;;;;;;6185240;23;20024;-87
2022/09/11 02:11:53;;;;;;;10.88;6.10;;;14.80;99.90;;;;;;6210371;23;20457;-89
2022/09/11 02:14:24;;;;;;;9.57;5.45;;;14.80;99.90;;;;;;6210533;23;20392;-87
2022/09/11 02:17:05;;;;;;;11.35;5.15;;;14.80;99.90;;;;;;6185027;23;20023;-88
2022/09/11 02:19:31;;;;;;;10.25;5.32;;;14.80;99.90;;;;;;6185416;23;20078;-90
2022/09/11 02:21:57;;;;;;;9.18;5.60;;;14.80;99.90;;;;;;6210055;23;20017;-87
2022/09/11 02:24:24;;;;;;;9.65;5.32;;;14.80;99.90;;;;;;6316886;22;20091;-90
2022/09/11 02:27:08;;;;;;;11.90;5.78;;;14.70;99.90;;;;;;6209893;23;20055;-87
2022/09/11 02:29:35;;;;;;;11.45;6.22;;;14.70;99.90;;;;;;6184900;23;20059;-89
2022/09/11 02:32:02;;;;;;;10.50;5.70;;;14.70;99.90;;;;;;6211721;23;20099;-90
2022/09/11 02:34:33;;;;;;;11.57;5.78;;;14.70;99.90;;;;;;6210054;23;20048;-89
2022/09/11 02:37:11;;;;;;;10.60;6.07;;;14.70;99.90;;;;;;6185243;23;20174;-89
2022/09/11 02:39:50;;;;;;;10.38;5.80;;;14.70;99.90;;;;;;6211433;23;20082;-90
2022/09/11 02:42:46;;;;;;;10.25;5.95;;;14.70;99.90;;;;;;6185123;23;20073;-91
2022/09/11 02:45:30;;;;;;;10.27;5.95;;;14.70;99.90;;;;;;6185028;23;20450;-90
2022/09/11 02:48:18;;;;;;;10.15;5.78;;;14.70;99.90;;;;;;6211641;23;20023;-88
2022/09/11 02:50:46;;;;;;;;;;;14.70;99.90;;;;;;6185335;23;20047;-90
2022/09/11 02:53:20;;;;;;;9.32;5.35;;;14.70;99.90;;;;;;6184735;23;19982;-89
2022/09/11 02:56:19;;;;;;;11.07;5.85;;;14.80;99.90;;;;;;6184905;23;20090;-88
2022/09/11 02:58:54;;;;;;;9.40;5.20;;;14.70;99.90;;;;;;6184807;23;20042;-91
2022/09/11 03:01:20;;;;;;;8.90;5.28;;;14.70;99.90;;;;;;6184741;22;20035;-88
2022/09/11 03:03:46;;;;;;;10.10;5.60;;;14.70;99.90;;;;;;6184919;23;20048;-89
2022/09/11 03:06:22;;;;;;;9.85;5.60;;;14.70;99.90;;;;;;6210240;23;20020;-89
2022/09/11 03:08:48;;;;;;;9.30;5.40;;;14.60;99.90;;;;;;6209612;23;20012;-89
2022/09/11 03:11:16;;;;;;;;;;;14.60;99.90;;;;;;6185358;23;20476;-89
2022/09/11 03:13:43;;;;;;;10.10;5.60;;;14.60;99.90;;;;;;6184821;23;19994;-89
2022/09/11 03:16:09;;;;;;;10.30;5.13;;;14.60;99.90;;;;;;6184628;23;20024;-88
2022/09/11 03:18:36;;;;;;;10.02;5.15;;;14.60;99.90;;;;;;6211313;23;20020;-91
2022/09/11 03:21:02;;;;;;;8.25;4.55;;;14.50;99.90;;;;;;6185190;23;20024;-88
2022/09/11 03:23:28;;;;;;;;;;;14.50;99.90;;;;;;6189134;23;20073;-88
2022/09/11 03:25:54;;;;;;;7.85;4.72;;;14.50;99.90;;;;;;6190882;22;19919;-89
2022/09/11 03:28:23;;;;;;;8.85;5.50;;;14.50;99.90;;;;;;6209622;23;20021;-89
2022/09/11 03:30:51;;;;;;;8.73;4.75;;;14.50;99.90;;;;;;6209622;23;20084;-89
2022/09/11 03:33:17;;;;;;;9.52;5.07;;;14.60;99.90;;;;;;6209232;23;20253;-89
2022/09/11 03:35:43;;;;;;;9.00;4.95;;;14.60;99.90;;;;;;6184079;23;20044;-89
2022/09/11 03:38:10;;;;;;;9.13;5.43;;;14.60;99.90;;;;;;6185447;23;20020;-90
2022/09/11 03:40:36;;;;;;;9.73;4.53;;;14.60;99.90;;;;;;6185803;23;20028;-90
2022/09/11 03:43:02;;;;;;;7.15;4.47;;;14.60;99.90;;;;;;6212422;23;20091;-88
2022/09/11 03:45:28;;;;;;;9.82;5.30;;;14.60;99.90;;;;;;6210889;23;20453;-89
2022/09/11 03:47:54;;;;;;;8.43;5.00;;;14.60;99.90;;;;;;6185889;23;20013;-91
2022/09/11 03:50:20;;;;;;;7.45;4.47;;;14.60;99.90;;;;;;6210730;23;20028;-88
2022/09/11 03:52:45;;;;;;;8.98;5.35;;;14.60;99.90;;;;;;6186122;23;20079;-89
2022/09/11 03:55:11;;;;;;;8.77;4.80;;;14.50;99.90;;;;;;6212413;23;20088;-90
2022/09/11 03:57:38;;;;;;;8.65;4.38;;;14.50;99.90;;;;;;6212764;23;20016;-90
2022/09/11 04:00:05;;;;;;;8.00;4.80;;;14.50;99.90;;;;;;6193036;23;20020;-89
2022/09/11 04:02:31;;;;;;;7.97;4.25;;;14.50;99.90;;;;;;6195884;23;20020;-89
2022/09/11 04:04:57;;;;;;;8.13;4.65;;;14.50;99.90;;;;;;6213519;23;20099;-91
2022/09/11 04:07:23;;;;;;;8.33;5.00;;;14.50;99.90;;;;;;6186112;23;20059;-91
2022/09/11 04:09:49;;;;;;;7.53;4.53;;;14.40;99.90;;;;;;6210776;23;20248;-88
2022/09/11 04:12:15;;;;;;;8.32;4.78;;;14.40;99.90;;;;;;6210547;23;20035;-88
2022/09/11 04:14:41;;;;;;;8.07;4.68;;;14.40;99.90;;;;;;6290577;22;20024;-90
2022/09/11 04:17:07;;;;;;;7.50;4.53;;;14.40;99.90;;;;;;6185662;23;20020;-90
2022/09/11 04:19:33;;;;;;;7.68;4.93;;;14.40;99.90;;;;;;6210544;23;20020;-88
2022/09/11 04:21:59;;;;;;;;;;;14.30;99.90;;;;;;6186294;23;20021;-88
2022/09/11 04:24:25;;;;;;;7.38;4.30;;;14.40;99.90;;;;;;6212162;22;19911;-90
2022/09/11 04:26:50;;;;;;;6.07;3.40;;;14.30;99.90;;;;;;6185854;23;20040;-89
2022/09/11 04:29:16;;;;;;;6.18;3.28;;;14.40;99.90;;;;;;6185806;23;20031;-89
2022/09/11 04:31:43;;;;;;;5.72;2.97;;;14.30;99.90;;;;;;6210779;22;20437;-91
2022/09/11 04:34:08;;;;;;;6.32;3.67;;;14.30;99.90;;;;;;6185524;23;20043;-89
2022/09/11 04:36:34;;;;;;;5.70;3.20;;;14.30;99.90;;;;;;6185455;23;20445;-89
2022/09/11 04:39:00;;;;;;;6.07;3.40;;;14.30;99.90;;;;;;6160960;23;20386;-89
2022/09/11 04:41:27;;;;;;;6.05;3.22;;;14.30;99.90;;;;;;6210831;23;20017;-87
2022/09/11 04:43:59;;;;;;;6.50;4.00;;;14.20;99.90;;;;;;6212299;23;20016;-89
2022/09/11 04:46:25;;;;;;;6.63;3.63;;;14.20;99.90;;;;;;6185989;23;20040;-88
2022/09/11 04:48:58;;;;;;;6.45;3.78;;;14.20;99.90;;;;;;6160837;23;20028;-88
2022/09/11 04:51:33;;;;;;;6.40;3.40;;;14.20;99.90;;;;;;6210704;23;20502;-92
2022/09/11 04:54:00;;;;;;;7.35;3.15;;;14.20;99.90;;;;;;6185814;23;20047;-91
2022/09/11 04:56:28;;;;;;;6.63;3.72;;;14.20;99.90;;;;;;6185689;23;20043;-88
2022/09/11 04:58:59;;;;;;;6.43;3.83;;;14.20;99.90;;;;;;6212346;23;20020;-91
2022/09/11 05:01:26;;;;;;;5.47;3.30;;;14.20;99.90;;;;;;6185726;23;20020;-88
2022/09/11 05:03:52;;;;;;;5.93;3.30;;;14.20;99.90;;;;;;6185853;23;20378;-88
2022/09/11 05:06:18;;;;;;;5.68;3.53;;;14.20;99.90;;;;;;6185747;23;20433;-89
2022/09/11 05:08:45;;;;;;;4.80;3.00;;;14.10;99.90;;;;;;6185612;23;20070;-90
2022/09/11 05:11:15;;;;;;;4.97;2.78;;;14.10;99.90;;;;;;6185543;23;20024;-90
2022/09/11 05:13:42;;;;;;;6.18;3.35;;;14.10;99.90;;;;;;6210704;23;20083;-90
2022/09/11 05:16:10;;;;;;;5.63;3.40;;;14.10;99.90;;;;;;6211708;23;20020;-88
2022/09/11 05:18:37;;;;;;;5.60;3.25;;;14.10;99.90;;;;;;6185505;23;20017;-90
2022/09/11 05:21:09;;;;;;;5.65;3.45;;;14.10;99.90;;;;;;6185380;23;20016;-88
2022/09/11 05:23:35;;;;;;;4.93;2.92;;;14.10;99.90;;;;;;6185625;23;20013;-89
2022/09/11 05:26:03;;;;;;;5.68;2.92;;;14.20;99.90;;;;;;6210339;23;20060;-91
2022/09/11 05:28:30;;;;;;;5.28;3.20;;;14.20;99.90;;;;;;6185535;23;20100;-89
2022/09/11 05:30:57;;;;;;;5.85;2.95;;;14.20;99.90;;;;;;6210182;23;20016;-91
2022/09/11 05:33:24;;;;;;;5.10;3.10;;;14.20;99.90;;;;;;6185763;23;20048;-89
2022/09/11 05:35:51;;;;;;;5.53;3.25;;;14.20;99.90;;;;;;6185464;23;20016;-90
2022/09/11 05:38:18;;;;;;;4.82;2.90;;;14.20;99.90;;;;;;6211917;23;20483;-88
2022/09/11 05:40:45;;;;;;;;;;;14.20;99.90;;;;;;6185910;23;20508;-88
2022/09/11 05:43:13;;;;;;;4.18;2.50;;;14.20;99.90;;;;;;6211706;23;20281;-88
2022/09/11 05:45:39;;;;;;;5.57;3.10;;;14.20;99.90;;;;;;6210339;23;20020;-88
2022/09/11 05:48:05;;;;;;;6.32;3.42;;;14.20;99.90;;;;;;6185120;23;20016;-89
2022/09/11 05:50:32;;;;;;;4.93;2.80;;;14.20;99.90;;;;;;6210130;23;20104;-90
2022/09/11 05:52:57;;;;;;;5.85;3.50;;;14.30;99.90;;;;;;6160758;23;20020;-89
2022/09/11 05:55:23;;;;;;;5.10;3.25;;;14.30;99.90;;;;;;6185085;23;20028;-88
2022/09/11 05:57:51;;;;;;;5.43;3.40;;;14.30;99.90;;;;;;6211828;23;20020;-91
2022/09/11 06:00:17;;;;;;;5.28;3.22;;;14.40;99.90;;;;;;6184797;23;20248;-89
2022/09/11 06:02:44;;;;;;;5.72;3.35;;;14.40;99.90;;;;;;6210281;23;20016;-90
2022/09/11 06:05:10;;;;;;;7.68;4.07;;;14.50;99.90;;;;;;6185304;23;20013;-88
2022/09/11 06:07:35;;;;;;;7.75;4.30;;;14.50;99.90;;;;;;6186919;23;20092;-90
2022/09/11 06:10:01;;;;;;;6.60;3.97;;;14.50;99.90;;;;;;6322466;22;20016;-90
2022/09/11 06:12:28;;;;;;;5.93;3.30;;;14.60;99.90;;;;;;6209758;23;20081;-87
2022/09/11 06:14:53;;;;;;;7.53;3.90;;;14.60;99.90;;;;;;6210446;23;20020;-90
2022/09/11 06:17:20;;;;;;;6.40;3.75;;;14.60;99.90;;;;;;6160326;23;20027;-91
2022/09/11 06:19:46;;;;;;;7.25;3.83;;;14.70;99.90;;;;;;6185050;23;20016;-89
2022/09/11 06:22:12;;;;;;;5.95;3.38;;;14.70;99.90;;;;;;6211702;23;20023;-92
2022/09/11 06:24:38;;;;;;;7.28;3.92;;;14.80;99.90;;;;;;6185127;23;20013;-90
2022/09/11 06:27:03;;;;;;;6.70;3.60;;;14.80;99.90;;;;;;6185061;23;20132;-89
2022/09/11 06:29:32;;;;;;;7.05;3.92;;;14.90;99.90;;;;;;6185066;23;20247;-90
2022/09/11 06:31:58;;;;;;;7.43;4.22;;;14.90;99.90;;;;;;6184853;23;20468;-88
2022/09/11 06:34:24;;;;;;;;;;;15.10;99.90;;;;;;6210683;23;20017;-88
2022/09/11 06:36:50;;;;;;;7.32;3.95;;;15.10;99.90;;;;;;6209787;23;20408;-88
2022/09/11 06:39:16;;;;;;;7.53;3.83;;;15.20;99.90;;;;;;6209704;23;20020;-86
2022/09/11 06:41:42;;;;;;;6.57;4.13;;;15.20;99.90;;;;;;6211600;23;20105;-91
2022/09/11 06:44:08;;;;;;;;;;;15.30;99.90;;;;;;6187768;23;20013;-86
2022/09/11 06:46:34;;;;;;;6.82;3.92;;;15.30;99.90;;;;;;6223905;22;19936;-88
2022/09/11 06:49:01;;;;;;;6.88;3.90;;;15.40;99.90;;;;;;6215174;23;20036;-88
2022/09/11 06:51:27;;;;;;;7.35;4.28;;;15.40;99.90;;;;;;6211309;23;20028;-90
2022/09/11 06:53:56;;;;;;;7.57;4.28;;;15.50;99.90;;;;;;6184669;23;20017;-88
2022/09/11 06:56:23;;;;;;;7.22;4.40;;;15.60;99.90;;;;;;6209678;23;20020;-92
2022/09/11 06:58:49;;;;;;;;;;;15.60;99.90;;;;;;6184965;23;20088;-89
2022/09/11 07:01:19;;;;;;;7.95;3.95;;;15.60;99.90;;;;;;6210932;23;19947;-87
2022/09/11 07:03:47;;;;;;;7.50;4.28;;;15.70;99.90;;;;;;6184537;22;20095;-91
2022/09/11 07:06:15;;;;;;;8.10;4.30;;;15.80;99.90;;;;;;6184316;22;20016;-89
2022/09/11 07:08:41;;;;;;;7.45;3.72;;;15.90;99.90;;;;;;6184810;22;20021;-88
2022/09/11 07:11:08;;;;;;;7.43;4.18;;;15.90;99.90;;;;;;6209541;23;20021;-90
2022/09/11 07:13:35;;;;;;;6.18;3.75;;;16.00;99.90;;;;;;6210634;23;20315;-90
2022/09/11 07:16:03;;;;;;;6.45;3.20;;;16.10;99.90;;;;;;6185819;23;20017;-88
2022/09/11 07:18:36;;;;;;;7.22;3.78;;;16.20;99.90;;;;;;6210070;23;20012;-88
2022/09/11 07:21:20;;;;;;;7.63;4.30;;;16.20;99.90;;;;;;6212055;23;20453;-88
2022/09/11 07:23:48;;;;;;;7.75;3.75;;;16.20;99.90;;;;;;6210960;23;20044;-90
2022/09/11 07:26:14;;;;;;;6.85;3.97;;;16.30;99.90;;;;;;6210469;23;20108;-88
2022/09/11 07:28:40;;;;;;;9.30;4.63;;;16.50;99.90;;;;;;6210981;23;20052;-90
2022/09/11 07:31:21;;;;;;;8.02;4.47;;;16.50;99.90;;;;;;6161113;23;20013;-90
2022/09/11 07:33:48;;;;;;;7.10;4.15;;;16.50;99.90;;;;;;6211147;23;20485;-92
2022/09/11 07:36:20;;;;;;;8.07;4.18;;;16.60;99.90;;;;;;6185788;23;20052;-88
2022/09/11 07:38:47;;;;;;;8.60;4.15;;;16.60;99.90;;;;;;6210765;23;20052;-89
2022/09/11 07:41:15;;;;;;;6.53;3.95;;;16.70;99.90;;;;;;6185591;23;20119;-88
2022/09/11 07:43:44;;;;;;;7.00;4.10;;;16.70;99.90;;;;;;6210902;23;20096;-91
2022/09/11 07:46:10;;;;;;;6.55;3.65;;;16.70;99.90;;;;;;6185746;23;20345;-89
2022/09/11 07:48:36;;;;;;;6.13;3.55;;;16.80;99.90;;;;;;6185992;23;20338;-90
2022/09/11 07:51:13;;;;;;;4.90;2.78;;;16.80;99.90;;;;;;6211219;23;20013;-88
2022/09/11 07:53:45;;;;;;;6.65;3.47;;;16.80;99.90;;;;;;6185526;23;20445;-87
2022/09/11 07:56:22;;;;;;;5.55;2.90;;;16.90;99.90;;;;;;6185736;23;20016;-88
2022/09/11 07:58:49;;;;;;;5.68;2.78;;;16.90;99.90;;;;;;6210448;23;20048;-87
2022/09/11 08:01:18;;;;;;;5.03;2.85;;;16.90;99.90;;;;;;6185622;22;20013;-89
2022/09/11 08:03:44;;;;;;;6.90;3.70;;;16.90;99.90;;;;;;6212033;23;20095;-89
2022/09/11 08:06:31;;;;;;;6.68;3.95;;;17.00;99.90;;;;;;6161557;23;20023;-87
2022/09/11 09:26:51;;;;;;;3.95;2.13;;;18.30;99.90;;;;;;6210405;22;20022;-87
2022/09/11 09:29:23;;;;;;;3.90;2.08;;;18.30;99.90;;;;;;6284014;22;20030;-85
2022/09/11 09:32:03;;;;;;;4.53;2.58;;;18.30;99.90;;;;;;6285647;22;20019;-89
2022/09/11 09:34:36;;;;;;;3.78;1.75;;;18.40;99.90;;;;;;6260289;22;20022;-87
2022/09/11 09:37:35;;;;;;;3.53;1.90;;;18.40;99.90;;;;;;6285382;22;20462;-87
2022/09/11 09:40:07;;;;;;;3.15;1.50;;;18.40;99.90;;;;;;6253452;22;20015;-87
2022/09/11 09:43:01;;;;;;;3.40;1.85;;;18.50;99.90;;;;;;6285298;22;20383;-87
2022/09/11 09:45:53;;;;;;;3.20;1.50;;;18.50;99.90;;;;;;6285547;22;20017;-86
2022/09/11 09:48:19;;;;;;;4.05;1.60;;;18.50;99.90;;;;;;6310978;22;20014;-87
2022/09/11 09:50:46;;;;;;;3.58;1.70;;;18.50;99.90;;;;;;6259466;22;20022;-86
2022/09/11 09:53:31;;;;;;;3.50;1.40;;;18.50;99.90;;;;;;6285069;22;20023;-87
2022/09/11 09:55:59;;;;;;;2.90;1.30;;;18.50;99.90;;;;;;6310703;22;20022;-87
2022/09/11 09:58:33;;;;;;;3.25;1.27;;;18.40;99.90;;;;;;6310992;22;20023;-87
2022/09/11 10:00:58;;;;;;;3.05;1.52;;;18.30;99.90;;;;;;6311079;22;20014;-87
2022/09/11 10:03:25;;;;;;;2.97;1.33;;;18.30;99.90;;;;;;6285433;22;20067;-89
2022/09/11 10:05:55;;;;;;;2.78;1.52;;;18.20;99.90;;;;;;6260423;22;20068;-88
2022/09/11 10:08:28;;;;;;;3.75;1.73;;;18.10;99.90;;;;;;6285836;22;20459;-89
2022/09/11 10:11:09;;;;;;;2.80;1.52;;;18.10;99.90;;;;;;6285509;22;20046;-90
2022/09/11 10:13:53;;;;;;;2.58;1.45;;;18.00;99.90;;;;;;6286024;22;20090;-90
2022/09/11 10:16:24;;;;;;;3.80;1.90;;;17.90;99.90;;;;;;6260599;22;20025;-89
2022/09/11 10:19:20;;;;;;;3.72;2.10;;;17.90;99.90;;;;;;6285748;22;20040;-89
2022/09/11 10:21:45;;;;;;;4.47;2.50;;;17.90;99.90;;;;;;6290168;22;20061;-91
2022/09/11 10:24:29;;;;;;;4.63;2.35;;;17.80;99.90;;;;;;6260277;22;20015;-88
2022/09/11 10:26:56;;;;;;;3.65;2.00;;;17.80;99.90;;;;;;6236708;22;20021;-88
2022/09/11 10:29:28;;;;;;;4.43;2.60;;;17.80;99.90;;;;;;6158371;23;20031;-88
2022/09/11 10:31:58;;;;;;;5.38;2.67;;;17.80;99.90;;;;;;6184723;23;20087;-89
2022/09/11 10:34:26;;;;;;;3.63;2.20;;;17.80;99.90;;;;;;6159990;23;20016;-88
2022/09/11 10:37:13;;;;;;;4.88;2.30;;;17.80;99.90;;;;;;6184844;23;20017;-89
2022/09/11 10:39:42;;;;;;;4.38;2.22;;;17.90;99.90;;;;;;6159328;23;20448;-90
2022/09/11 10:42:29;;;;;;;4.75;2.30;;;17.90;99.90;;;;;;6159755;23;20575;-89
2022/09/11 10:45:14;;;;;;;4.20;2.00;;;17.90;99.90;;;;;;6159753;23;20077;-90
2022/09/11 10:47:40;;;;;;;3.05;1.70;;;17.90;99.90;;;;;;6161323;23;20017;-94
2022/09/11 10:50:35;;;;;;;3.70;2.00;;;17.90;99.90;;;;;;6162156;23;20017;-94
2022/09/11 10:53:32;;;;;;;3.78;2.20;;;18.00;99.90;;;;;;6154622;23;20384;-92
2022/09/11 11:13:39;;;;;;;2.72;1.30;;;18.50;99.90;;;;;;6152949;22;20022;-91
2022/09/11 11:16:20;;;;;;;2.47;1.17;;;18.60;99.90;;;;;;6126677;23;20100;-89
2022/09/11 11:19:13;;;;;;;2.72;1.08;;;18.70;99.90;;;;;;6127144;23;20044;-89
2022/09/11 11:22:14;;;;;;;2.47;1.33;;;18.70;99.90;;;;;;6127094;23;20014;-89
2022/09/11 11:25:11;;;;;;;2.03;1.10;;;18.80;99.90;;;;;;6063656;23;20017;-88
2022/09/11 11:28:06;;;;;;;2.00;1.08;;;19.00;99.90;;;;;;6104180;23;20056;-93
2022/09/11 11:31:14;;;;;;;2.13;1.30;;;19.20;99.90;;;;;;6126548;23;20093;-90
2022/09/11 11:33:57;;;;;;;1.73;0.88;;;19.30;99.90;;;;;;6148417;23;20049;-90
2022/09/11 11:36:31;;;;;;;3.13;1.02;;;19.30;99.90;;;;;;6127320;23;20496;-90
2022/09/11 11:39:15;;;;;;;2.92;0.70;;;19.40;99.90;;;;;;6127394;23;20021;-91
2022/09/11 11:41:54;;;;;;;1.73;0.88;;;19.50;99.90;;;;;;6126959;23;20018;-90
2022/09/11 11:44:32;;;;;;;2.00;0.75;;;19.50;99.90;;;;;;6127192;23;20018;-93
2022/09/11 11:47:03;;;;;;;2.00;1.00;;;19.40;99.90;;;;;;6151496;23;20088;-91
2022/09/11 11:49:42;;;;;;;4.47;1.40;;;19.40;99.90;;;;;;6126702;23;20025;-90
2022/09/11 11:53:00;;;;;;;3.22;1.38;;;19.50;99.90;;;;;;6126773;23;20018;-91
2022/09/11 11:55:58;;;;;;;3.25;1.50;;;19.60;99.90;;;;;;6134555;23;20017;-90
2022/09/11 11:58:30;;;;;;;3.25;1.70;;;19.60;99.90;;;;;;6124199;23;20021;-90
2022/09/11 12:01:00;;;;;;;4.00;2.13;;;19.50;99.90;;;;;;6123651;23;20065;-91
2022/09/11 12:03:41;;;;;;;3.58;1.92;;;19.60;99.90;;;;;;6150214;23;20014;-90
2022/09/11 12:06:07;;;;;;;3.67;1.88;;;19.70;99.90;;;;;;6125174;23;20389;-89
2022/09/11 12:09:19;;;;;;;3.53;1.85;;;19.90;99.90;;;;;;6150772;23;20049;-88
2022/09/11 12:12:29;;;;;;;5.40;2.03;;;20.10;99.90;;;;;;6151157;23;20013;-89
2022/09/11 12:15:03;;;;;;;3.70;1.90;;;20.10;99.90;;;;;;6120732;22;20089;-93
2022/09/11 12:18:20;;;;;;;3.85;1.80;;;20.00;99.90;;;;;;6126670;23;20068;-93
2022/09/11 12:20:46;;;;;;;4.30;1.80;;;19.90;99.90;;;;;;6125311;23;20025;-93
2022/09/11 12:23:30;;;;;;;4.07;2.08;;;19.80;99.90;;;;;;6127731;23;20014;-92
2022/09/11 12:26:07;;;;;;;3.30;2.00;;;19.70;99.90;;;;;;6127347;23;20060;-91
2022/09/11 12:28:34;;;;;;;3.90;2.00;;;19.50;99.90;;;;;;6127773;23;20092;-93
2022/09/11 13:12:25;;;;;;;4.63;2.55;;;19.40;99.90;;;;;;6205109;23;20028;-93
2022/09/11 13:14:55;;;;;;;4.57;2.30;;;19.60;99.90;;;;;;6190456;23;20449;-93
2022/09/11 13:17:32;;;;;;;4.20;2.10;;;19.80;99.90;;;;;;6185465;23;20514;-94
2022/09/11 13:20:05;;;;;;;4.63;2.65;;;20.00;99.90;;;;;;6184855;23;20013;-92
2022/09/11 13:22:33;;;;;;;3.75;1.98;;;20.10;99.90;;;;;;6183895;23;20053;-91
2022/09/11 13:25:05;;;;;;;4.13;2.10;;;20.30;99.90;;;;;;6210705;23;20012;-91
2022/09/11 13:27:35;;;;;;;3.78;1.92;;;20.40;99.90;;;;;;6185634;23;20058;-92
2022/09/11 13:30:01;;;;;;;4.55;2.10;;;20.40;99.90;;;;;;6161642;23;20069;-90
2022/09/11 13:32:27;;;;;;;3.80;1.98;;;20.50;99.90;;;;;;6161558;23;20021;-93
2022/09/11 13:35:00;;;;;;;4.30;1.70;;;20.60;99.90;;;;;;6188283;23;20052;-95
2022/09/11 13:37:51;;;;;;;3.20;1.70;;;20.70;99.90;;;;;;6187654;23;20016;-95
2022/09/11 13:40:31;;;;;;;2.85;1.60;;;20.70;99.90;;;;;;6188718;23;20016;-93
2022/09/11 13:43:00;;;;;;;3.42;1.60;;;20.70;99.90;;;;;;6186959;23;20129;-92
2022/09/11 13:45:27;;;;;;;2.67;1.48;;;20.70;99.90;;;;;;6161635;23;20028;-92
2022/09/11 13:53:55;;;;;;;2.83;1.27;;;20.80;99.90;;;;;;6218210;22;20021;-91
2022/09/11 13:56:46;;;;;;;4.45;1.45;;;20.90;99.90;;;;;;6191401;23;20038;-91
2022/09/11 13:59:43;;;;;;;2.22;1.20;;;20.90;99.90;;;;;;6211859;23;20040;-90
2022/09/11 14:02:18;;;;;;;3.97;1.33;;;21.00;99.90;;;;;;6185403;23;20392;-93
2022/09/11 14:05:00;;;;;;;2.95;1.40;;;20.90;99.90;;;;;;6183795;23;20021;-91
2022/09/11 14:07:26;;;;;;;2.33;1.05;;;20.90;99.90;;;;;;6185432;23;20020;-93
2022/09/11 14:10:03;;;;;;;;;;;21.00;99.90;;;;;;6185184;23;20031;-90
2022/09/11 14:12:31;;;;;;;2.78;1.23;;;21.00;99.90;;;;;;6182465;23;20226;-90
2022/09/11 14:15:02;;;;;;;2.70;1.10;;;20.90;99.90;;;;;;6160323;23;20050;-90
2022/09/11 14:17:28;;;;;;;2.75;1.05;;;21.00;99.90;;;;;;6184826;23;20500;-90
2022/09/11 14:20:00;;;;;;;;;;;21.00;99.90;;;;;;6185312;23;20021;-90
2022/09/11 14:22:29;;;;;;;2.72;0.90;;;20.90;99.90;;;;;;6184973;22;20357;-89
2022/09/11 14:25:22;;;;;;;2.33;0.95;;;20.90;99.90;;;;;;6184896;23;20058;-90
2022/09/11 14:28:01;;;;;;;;;;;;;;;;;;;;;
2022/09/11 14:30:37;;;;;;;1.60;0.80;;;20.80;99.90;;;;;;6187918;23;20323;-91
2022/09/11 14:33:23;;;;;;;1.55;0.90;;;20.80;99.90;;;;;;6184902;22;20081;-91
2022/09/11 14:35:53;;;;;;;1.58;0.90;;;20.70;99.90;;;;;;6184923;23;20017;-90
2022/09/11 14:38:27;;;;;;;1.95;0.75;;;20.70;99.90;;;;;;6209684;23;20020;-93
2022/09/11 14:41:06;;;;;;;3.80;0.80;;;20.70;99.90;;;;;;6185009;23;20454;-91
2022/09/11 14:43:34;;;;;;;1.35;0.50;;;20.70;99.90;;;;;;6185442;23;20013;-93
2022/09/11 14:46:09;;;;;;;3.00;1.20;;;20.70;99.90;;;;;;6210284;23;20017;-93
2022/09/11 14:48:45;;;;;;;2.05;0.77;;;20.70;99.90;;;;;;6184118;23;20027;-94
2022/09/11 14:51:11;;;;;;;1.45;0.60;;;20.60;99.90;;;;;;6184253;23;20051;-91
2022/09/11 14:53:41;;;;;;;2.20;0.65;;;20.60;99.90;;;;;;6185404;23;20050;-95
2022/09/11 14:56:10;;;;;;;2.00;0.70;;;20.50;99.90;;;;;;6210172;23;20013;-94
2022/09/11 14:58:55;;;;;;;1.40;0.70;;;20.50;99.90;;;;;;6137331;22;20409;-94
2022/09/11 15:01:21;;;;;;;2.33;0.98;;;20.50;99.90;;;;;;6163147;23;20398;-93
2022/09/11 15:04:38;;;;;;;;;;;;;;;;;;;;;
2022/09/11 15:23:03;;;;;;;2.88;1.20;;;20.20;99.90;;;;;;6210670;23;20017;-88
2022/09/11 15:25:31;;;;;;;2.50;1.38;;;20.10;99.90;;;;;;6159829;23;20020;-91
2022/09/11 15:28:00;;;;;;;3.15;1.45;;;20.20;99.90;;;;;;6184911;23;20048;-91
2022/09/11 15:31:01;;;;;;;4.57;1.40;;;20.20;99.90;;;;;;6184859;23;20021;-92
2022/09/11 16:34:55;;;;;;;2.28;1.10;;;19.90;99.90;;;;;;6216627;23;20044;-94
2022/09/11 16:37:22;;;;;;;4.05;1.23;;;19.90;99.90;;;;;;6186183;23;20085;-95
2022/09/11 16:39:49;;;;;;;2.17;1.02;;;19.90;99.90;;;;;;6213049;23;20498;-92
2022/09/11 16:42:16;;;;;;;2.85;1.17;;;19.90;99.90;;;;;;6165530;23;20027;-94
2022/09/11 16:44:42;;;;;;;2.53;1.40;;;19.90;99.90;;;;;;6212105;23;20023;-93
2022/09/11 16:47:08;;;;;;;3.10;1.40;;;19.80;99.90;;;;;;6186582;23;20096;-94
2022/09/11 16:49:36;;;;;;;3.55;1.63;;;19.80;99.90;;;;;;6162095;23;20024;-96
2022/09/11 16:52:02;;;;;;;2.90;1.50;;;19.80;99.90;;;;;;6161516;23;20017;-92
2022/09/11 16:54:28;;;;;;;1.63;0.73;;;19.70;99.90;;;;;;6186167;23;20016;-94
2022/09/11 16:56:54;;;;;;;5.30;1.20;;;19.70;99.90;;;;;;6161445;23;20069;-93
2022/09/11 16:59:25;;;;;;;2.90;1.40;;;19.60;99.90;;;;;;6185929;23;20471;-94